Aviation Digital Data Service (ADDS)

Output produced by METARs form (0306 UTC 29 March 2015)
found at http://aviationweather.gov/adds/metars/
 
KFAY 290146Z 2902/2924 36005KT P6SM SKC